FYV weather

Drake Field
Fayetteville, Arkansas, United States

Public forecast

Using degrees Fahrenheit for public forecast. Weather courtesy of forecast.io.

METAR (pilot weather report)

Retrieved 2019/07/16 06:53 UTC (46 minutes ago):

KFYV 160653Z AUTO 21003KT 10SM BKN041 22/22 A2993 RMK AO2 SLP122 T02220217

TAF (pilot weather forecast)

Retrieved 2019/07/16 06:22 UTC (1 hour ago):

TAF KFYV 160520Z 1606/1706 19004KT P6SM SCT014 BKN025 FM160900 VRB03KT 3SM BR BKN012 FM161600 26007KT P6SM SCT015 BKN035 FM170100 VRB03KT P6SM SKC